createdAt,value
2023-06-16T00:00:21.750Z,10.45
2023-06-16T00:03:26.028Z,9.82
2023-06-16T00:06:32.226Z,9.73
2023-06-16T00:09:36.170Z,6.82
2023-06-16T00:12:41.690Z,7.82
2023-06-16T00:15:45.854Z,10.55
2023-06-16T00:18:53.181Z,8.63
2023-06-16T00:22:02.096Z,9.25
2023-06-16T00:25:06.147Z,10.30
2023-06-16T00:28:10.015Z,5.88
2023-06-16T00:31:13.970Z,8.68
2023-06-16T00:34:18.072Z,8.00
2023-06-16T00:37:22.036Z,9.00
2023-06-16T00:40:26.061Z,10.88
2023-06-16T00:43:30.090Z,10.52
2023-06-16T00:46:37.730Z,8.65
2023-06-16T00:49:42.019Z,9.02
2023-06-16T00:52:46.140Z,7.90
2023-06-16T00:55:51.751Z,9.10
2023-06-16T00:58:56.615Z,9.73
2023-06-16T01:02:00.689Z,12.43
2023-06-16T01:05:08.875Z,8.77
2023-06-16T01:08:36.073Z,7.63
2023-06-16T01:11:52.889Z,8.93
2023-06-16T01:15:05.632Z,6.97
2023-06-16T01:18:10.932Z,7.47
2023-06-16T01:21:32.285Z,9.35
2023-06-16T01:24:37.012Z,8.77
2023-06-16T01:27:48.587Z,10.05
2023-06-16T01:30:55.068Z,9.88
2023-06-16T01:34:02.303Z,10.15
2023-06-16T01:37:07.570Z,8.48
2023-06-16T01:40:13.047Z,10.73
2023-06-16T01:43:17.796Z,10.93
2023-06-16T01:46:23.265Z,10.27
2023-06-16T01:49:27.960Z,8.32
2023-06-16T01:52:31.766Z,12.75
2023-06-16T01:55:35.722Z,11.45
2023-06-16T01:58:39.967Z,8.80
2023-06-16T02:01:50.941Z,13.13
2023-06-16T02:04:56.085Z,8.70
2023-06-16T02:08:02.286Z,7.43
2023-06-16T02:11:06.863Z,9.10
2023-06-16T02:14:11.968Z,8.10
2023-06-16T02:17:16.555Z,9.43
2023-06-16T02:20:21.190Z,8.73
2023-06-16T02:23:26.181Z,9.20
2023-06-16T02:26:30.382Z,11.38
2023-06-16T02:29:34.604Z,9.82
2023-06-16T02:32:46.141Z,8.02
2023-06-16T02:35:57.302Z,9.98
2023-06-16T02:39:01.086Z,11.32
2023-06-16T02:42:05.378Z,8.55
2023-06-16T02:45:09.649Z,13.52
2023-06-16T02:48:13.770Z,10.73
2023-06-16T02:51:17.775Z,10.02
2023-06-16T02:54:21.991Z,10.20
2023-06-16T02:57:26.124Z,12.15
2023-06-16T03:00:30.506Z,12.05
2023-06-16T03:03:37.570Z,12.20
2023-06-16T03:06:46.111Z,9.88
2023-06-16T03:09:51.021Z,10.98
2023-06-16T03:12:54.884Z,12.13
2023-06-16T03:15:58.790Z,8.18
2023-06-16T03:19:02.926Z,13.38
2023-06-16T03:22:07.921Z,7.38
2023-06-16T03:25:11.800Z,8.30
2023-06-16T03:28:15.490Z,10.30
2023-06-16T03:31:20.645Z,10.38
2023-06-16T03:34:25.433Z,9.07
2023-06-16T03:37:29.681Z,8.25
2023-06-16T03:40:33.399Z,11.30
2023-06-16T03:43:37.149Z,9.63
2023-06-16T03:46:41.738Z,10.07
2023-06-16T03:49:46.068Z,10.32
2023-06-16T03:52:59.245Z,11.88
2023-06-16T03:56:13.998Z,9.70
2023-06-16T03:59:17.882Z,10.77
2023-06-16T04:02:21.790Z,7.50
2023-06-16T04:05:25.848Z,9.55
2023-06-16T04:08:29.801Z,9.27
2023-06-16T04:11:34.196Z,8.55
2023-06-16T04:14:38.160Z,9.05
2023-06-16T04:17:42.843Z,10.38
2023-06-16T04:20:46.906Z,8.45
2023-06-16T04:23:51.271Z,14.32
2023-06-16T04:26:59.306Z,9.93
2023-06-16T04:30:06.334Z,10.32
2023-06-16T04:33:11.414Z,11.40
2023-06-16T04:36:18.211Z,9.02
2023-06-16T04:39:22.021Z,11.32
2023-06-16T04:42:26.043Z,11.65
2023-06-16T04:45:30.117Z,10.23
2023-06-16T04:48:34.298Z,9.75
2023-06-16T04:51:38.288Z,11.77
2023-06-16T04:54:42.370Z,11.65
2023-06-16T04:57:46.744Z,12.63
2023-06-16T05:00:51.605Z,12.05
2023-06-16T05:03:58.785Z,12.13
2023-06-16T05:07:04.639Z,12.73
2023-06-16T05:10:09.451Z,11.75
2023-06-16T05:13:13.542Z,10.82
2023-06-16T05:16:17.714Z,11.57
2023-06-16T05:19:21.802Z,12.40
2023-06-16T05:22:26.317Z,11.13
2023-06-16T05:25:33.565Z,18.95
2023-06-16T05:28:37.777Z,16.23
2023-06-16T05:31:41.934Z,12.32
2023-06-16T05:34:48.625Z,12.02
2023-06-16T05:37:52.521Z,14.10
2023-06-16T05:40:56.439Z,18.38
2023-06-16T05:44:00.704Z,15.65
2023-06-16T05:47:05.174Z,17.67
2023-06-16T05:50:09.492Z,17.63
2023-06-16T05:53:13.405Z,15.32
2023-06-16T05:56:17.776Z,13.30
2023-06-16T05:59:21.817Z,13.45
2023-06-16T06:02:26.223Z,14.30
2023-06-16T06:05:30.566Z,13.38
2023-06-16T06:08:34.869Z,14.57
2023-06-16T06:11:39.057Z,14.20
2023-06-16T06:14:43.207Z,13.88
2023-06-16T06:17:47.170Z,14.32
2023-06-16T06:20:51.265Z,9.63
2023-06-16T06:23:55.812Z,10.55
2023-06-16T06:27:00.180Z,14.13
2023-06-16T06:30:04.415Z,12.10
2023-06-16T06:33:08.288Z,15.02
2023-06-16T06:36:12.674Z,10.65
2023-06-16T06:39:17.354Z,10.95
2023-06-16T06:42:22.049Z,10.52
2023-06-16T06:45:26.384Z,16.05
2023-06-16T06:48:30.822Z,12.57
2023-06-16T06:51:34.805Z,12.15
2023-06-16T06:54:39.217Z,15.93
2023-06-16T06:57:43.791Z,11.45
2023-06-16T07:00:48.228Z,11.40
2023-06-16T07:03:52.380Z,15.07
2023-06-16T07:06:56.970Z,14.15
2023-06-16T07:10:02.198Z,11.65
2023-06-16T07:13:07.709Z,11.02
2023-06-16T07:16:12.191Z,12.30
2023-06-16T07:19:16.094Z,10.82
2023-06-16T07:22:21.193Z,15.25
2023-06-16T07:25:25.323Z,12.68
2023-06-16T07:28:29.379Z,14.27
2023-06-16T07:31:33.556Z,14.55
2023-06-16T07:34:40.120Z,9.85
2023-06-16T07:37:44.140Z,11.40
2023-06-16T07:40:48.154Z,11.85
2023-06-16T07:43:54.042Z,8.77
2023-06-16T07:46:58.211Z,11.38
2023-06-16T07:50:02.795Z,11.05
2023-06-16T07:53:06.507Z,15.60
2023-06-16T07:56:10.967Z,9.80
2023-06-16T07:59:15.304Z,14.10
2023-06-16T08:02:19.662Z,12.35
2023-06-16T08:05:23.990Z,11.05
2023-06-16T08:08:28.687Z,8.80
2023-06-16T08:11:32.770Z,13.40
2023-06-16T08:14:37.791Z,10.93
2023-06-16T08:17:42.583Z,8.73
2023-06-16T08:20:47.317Z,10.50
2023-06-16T08:23:53.524Z,10.45
2023-06-16T08:26:57.977Z,9.30
2023-06-16T08:30:03.020Z,9.40
2023-06-16T08:33:07.479Z,8.77
2023-06-16T08:36:12.360Z,14.25
2023-06-16T08:39:16.691Z,12.65
2023-06-16T08:42:21.969Z,10.35
2023-06-16T08:45:27.097Z,7.63
2023-06-16T08:48:31.709Z,7.78
2023-06-16T08:51:38.252Z,9.93
2023-06-16T08:54:49.220Z,12.30
2023-06-16T08:57:54.398Z,9.43
2023-06-16T09:01:03.898Z,11.05
2023-06-16T09:04:10.881Z,10.57
2023-06-16T09:07:20.345Z,11.30
2023-06-16T09:10:24.556Z,9.90
2023-06-16T09:13:28.965Z,9.15
2023-06-16T09:16:33.180Z,10.13
2023-06-16T09:19:48.708Z,9.93
2023-06-16T09:23:02.222Z,11.20
2023-06-16T09:26:16.433Z,8.85
2023-06-16T09:29:23.204Z,10.18
2023-06-16T09:32:37.859Z,10.05
2023-06-16T09:35:43.111Z,8.68
2023-06-16T09:38:51.258Z,9.00
2023-06-16T09:41:55.505Z,8.05
2023-06-16T09:44:59.751Z,8.38
2023-06-16T09:48:06.397Z,8.70
2023-06-16T09:51:11.577Z,10.82
2023-06-16T09:54:16.031Z,9.57
2023-06-16T09:57:20.856Z,9.20
2023-06-16T10:00:26.260Z,9.98
2023-06-16T10:03:33.918Z,9.93
2023-06-16T10:06:43.161Z,10.90
2023-06-16T10:10:02.567Z,8.82
2023-06-16T10:13:11.428Z,9.32
2023-06-16T10:16:16.971Z,8.95
2023-06-16T10:19:23.248Z,7.97
2023-06-16T10:22:27.926Z,7.97
2023-06-16T10:25:32.433Z,8.50
2023-06-16T10:28:37.771Z,9.68
2023-06-16T10:31:44.711Z,8.35
2023-06-16T10:34:57.987Z,11.45
2023-06-16T10:38:02.527Z,8.73
2023-06-16T10:41:13.133Z,9.75
2023-06-16T10:44:32.529Z,8.00
2023-06-16T10:47:37.095Z,9.15
2023-06-16T10:50:41.681Z,9.73
2023-06-16T10:53:46.774Z,7.47
2023-06-16T10:57:13.794Z,7.32
2023-06-16T11:00:20.245Z,9.52
2023-06-16T11:03:29.961Z,10.20
2023-06-16T11:07:13.366Z,11.52
2023-06-16T11:10:29.163Z,13.20
2023-06-16T11:13:39.475Z,10.02
2023-06-16T11:16:45.661Z,9.32
2023-06-16T11:19:55.178Z,8.40
2023-06-16T11:22:59.102Z,7.80
2023-06-16T11:26:12.164Z,10.93
2023-06-16T11:29:17.032Z,12.02
2023-06-16T11:32:29.288Z,11.00
2023-06-16T11:35:34.437Z,11.50
2023-06-16T11:38:38.207Z,8.20
2023-06-16T11:41:50.241Z,9.00
2023-06-16T11:45:05.183Z,8.57
2023-06-16T11:48:10.713Z,8.63
2023-06-16T11:51:15.620Z,10.18
2023-06-16T11:54:22.067Z,10.32
2023-06-16T11:57:26.414Z,10.32
2023-06-16T12:00:30.742Z,10.43
2023-06-16T12:03:41.226Z,8.00
2023-06-16T12:06:50.632Z,9.40
2023-06-16T12:09:56.577Z,10.82
2023-06-16T12:13:00.521Z,8.43
2023-06-16T12:16:06.598Z,8.98
2023-06-16T12:19:10.810Z,8.45
2023-06-16T12:22:14.899Z,8.80
2023-06-16T12:25:19.117Z,8.98
2023-06-16T12:28:22.895Z,10.68
2023-06-16T12:31:27.854Z,9.88
2023-06-16T12:34:34.310Z,8.25
2023-06-16T12:37:42.767Z,10.23
2023-06-16T12:40:47.099Z,10.05
2023-06-16T12:43:52.650Z,10.45
2023-06-16T12:46:56.719Z,9.07
2023-06-16T12:50:02.117Z,11.43
2023-06-16T12:53:06.407Z,10.50
2023-06-16T12:56:15.815Z,10.95
2023-06-16T12:59:20.050Z,10.68
2023-06-16T13:02:24.320Z,8.65
2023-06-16T13:05:28.757Z,8.02
2023-06-16T13:08:32.821Z,7.60
2023-06-16T13:11:36.935Z,6.93
2023-06-16T13:14:40.952Z,6.90
2023-06-16T13:17:44.852Z,8.63
2023-06-16T13:20:49.530Z,7.35
2023-06-16T13:23:53.869Z,7.93
2023-06-16T13:26:57.811Z,9.55
2023-06-16T13:30:02.049Z,6.35
2023-06-16T13:33:06.447Z,8.55
2023-06-16T13:36:12.790Z,7.30
2023-06-16T13:39:17.078Z,9.77
2023-06-16T13:42:21.331Z,5.00
2023-06-16T13:45:25.411Z,7.18
2023-06-16T13:48:29.803Z,6.70
2023-06-16T13:51:34.039Z,7.65
2023-06-16T13:54:38.184Z,6.60
2023-06-16T13:57:42.211Z,8.15
2023-06-16T14:00:46.319Z,8.18
2023-06-16T14:03:50.652Z,7.03
2023-06-16T14:06:54.952Z,6.65
2023-06-16T14:09:59.122Z,8.45
2023-06-16T14:13:03.150Z,7.03
2023-06-16T14:16:07.244Z,5.95
2023-06-16T14:19:11.749Z,7.25
2023-06-16T14:22:15.789Z,6.70
2023-06-16T14:25:19.730Z,5.72
2023-06-16T14:28:23.675Z,5.90
2023-06-16T14:31:27.850Z,5.05
2023-06-16T14:34:32.258Z,7.55
2023-06-16T14:37:36.507Z,7.45
2023-06-16T14:40:40.318Z,5.40
2023-06-16T14:43:44.210Z,7.43
2023-06-16T14:46:48.190Z,5.53
2023-06-16T14:49:52.242Z,5.05
2023-06-16T14:52:56.651Z,6.32
2023-06-16T14:56:00.892Z,5.78
2023-06-16T14:59:05.160Z,7.40
2023-06-16T15:02:09.321Z,5.95
2023-06-16T15:05:15.133Z,6.43
2023-06-16T15:08:19.096Z,7.50
2023-06-16T15:11:23.194Z,5.40
2023-06-16T15:14:27.144Z,6.30
2023-06-16T15:17:31.079Z,6.50
2023-06-16T15:20:35.770Z,6.07
2023-06-16T15:23:41.618Z,6.70
2023-06-16T15:26:46.577Z,4.53
2023-06-16T15:29:50.557Z,7.47
2023-06-16T15:32:54.906Z,6.30
2023-06-16T15:36:00.790Z,6.78
2023-06-16T15:39:08.032Z,7.10
2023-06-16T15:42:13.068Z,5.80
2023-06-16T15:45:16.978Z,7.20
2023-06-16T15:48:21.116Z,10.93
2023-06-16T15:51:25.266Z,7.25
2023-06-16T15:54:29.601Z,5.97
2023-06-16T15:57:33.671Z,9.80
2023-06-16T16:00:38.017Z,7.13
2023-06-16T16:03:42.040Z,6.43
2023-06-16T16:06:46.239Z,8.02
2023-06-16T16:09:50.225Z,8.45
2023-06-16T16:12:54.459Z,9.60
2023-06-16T16:15:58.823Z,9.55
2023-06-16T16:19:02.920Z,9.73
2023-06-16T16:22:07.408Z,9.70
2023-06-16T16:25:11.643Z,6.57
2023-06-16T16:28:15.867Z,5.72
2023-06-16T16:31:19.994Z,6.78
2023-06-16T16:34:24.005Z,8.90
2023-06-16T16:37:28.238Z,7.30
2023-06-16T16:40:33.537Z,7.20
2023-06-16T16:43:37.582Z,5.30
2023-06-16T16:46:41.682Z,6.72
2023-06-16T16:49:46.160Z,6.65
2023-06-16T16:52:50.358Z,6.53
2023-06-16T16:55:54.584Z,5.22
2023-06-16T16:58:58.904Z,8.07
2023-06-16T17:02:02.991Z,6.88
2023-06-16T17:05:07.612Z,8.95
2023-06-16T17:08:12.433Z,9.90
2023-06-16T17:11:17.011Z,7.25
2023-06-16T17:14:23.190Z,10.93
2023-06-16T17:17:27.323Z,7.28
2023-06-16T17:20:31.566Z,8.02
2023-06-16T17:23:35.717Z,6.72
2023-06-16T17:26:39.725Z,9.38
2023-06-16T17:29:43.675Z,7.75
2023-06-16T17:32:47.875Z,7.82
2023-06-16T17:35:53.888Z,10.70
2023-06-16T17:38:58.156Z,7.60
2023-06-16T17:42:02.383Z,6.80
2023-06-16T17:45:06.998Z,8.93
2023-06-16T17:48:11.290Z,6.38
2023-06-16T17:51:15.407Z,7.70
2023-06-16T17:54:22.230Z,5.90
2023-06-16T17:57:26.426Z,7.18
2023-06-16T18:00:30.900Z,7.03
2023-06-16T18:03:35.134Z,11.07
2023-06-16T18:06:41.908Z,6.85
2023-06-16T18:09:45.860Z,9.10
2023-06-16T18:12:50.111Z,11.10
2023-06-16T18:15:54.355Z,8.02
2023-06-16T18:18:59.789Z,10.10
2023-06-16T18:22:04.301Z,6.18
2023-06-16T18:25:08.840Z,8.55
2023-06-16T18:28:12.736Z,7.65
2023-06-16T18:31:19.076Z,7.90
2023-06-16T18:34:23.420Z,7.97
2023-06-16T18:37:27.492Z,8.90
2023-06-16T18:40:31.503Z,9.48
2023-06-16T18:43:35.830Z,9.52
2023-06-16T18:46:40.458Z,10.52
2023-06-16T18:49:44.855Z,7.35
2023-06-16T18:52:49.038Z,9.38
2023-06-16T18:55:53.034Z,9.80
2023-06-16T18:58:57.783Z,7.75
2023-06-16T19:02:01.664Z,7.85
2023-06-16T19:05:08.649Z,8.65
2023-06-16T19:08:14.907Z,6.93
2023-06-16T19:11:19.759Z,9.80
2023-06-16T19:14:23.732Z,7.75
2023-06-16T19:17:27.601Z,8.57
2023-06-16T19:20:31.974Z,9.45
2023-06-16T19:23:35.990Z,8.30
2023-06-16T19:26:39.997Z,6.72
2023-06-16T19:29:44.276Z,6.50
2023-06-16T19:32:48.242Z,6.55
2023-06-16T19:35:52.786Z,8.52
2023-06-16T19:38:58.892Z,7.93
2023-06-16T19:42:03.092Z,10.30
2023-06-16T19:45:07.973Z,7.13
2023-06-16T19:48:12.062Z,6.40
2023-06-16T19:51:16.058Z,7.65
2023-06-16T19:54:21.408Z,8.02
2023-06-16T19:57:25.827Z,8.13
2023-06-16T20:00:29.679Z,5.88
2023-06-16T20:03:33.648Z,8.73
2023-06-16T20:06:38.384Z,7.35
2023-06-16T20:09:42.704Z,8.35
2023-06-16T20:12:47.435Z,6.93
2023-06-16T20:15:51.511Z,11.70
2023-06-16T20:18:55.671Z,7.88
2023-06-16T20:21:59.819Z,10.98
2023-06-16T20:25:04.884Z,7.45
2023-06-16T20:28:08.771Z,9.13
2023-06-16T20:31:13.249Z,9.48
2023-06-16T20:34:17.375Z,10.27
2023-06-16T20:37:21.521Z,9.45
2023-06-16T20:40:27.716Z,9.18
2023-06-16T20:43:32.896Z,9.32
2023-06-16T20:46:38.319Z,8.13
2023-06-16T20:49:42.777Z,8.27
2023-06-16T20:52:49.941Z,7.60
2023-06-16T20:55:54.097Z,7.07
2023-06-16T20:59:00.059Z,6.15
2023-06-16T21:02:06.853Z,8.02
2023-06-16T21:05:12.169Z,8.32
2023-06-16T21:08:19.743Z,8.82
2023-06-16T21:11:26.596Z,8.30
2023-06-16T21:14:30.749Z,8.73
2023-06-16T21:17:35.000Z,7.78
2023-06-16T21:20:39.301Z,6.95
2023-06-16T21:23:43.538Z,8.40
2023-06-16T21:26:47.755Z,8.77
2023-06-16T21:29:52.167Z,8.05
2023-06-16T21:32:57.672Z,8.15
2023-06-16T21:36:01.934Z,7.60
2023-06-16T21:39:06.007Z,9.60
2023-06-16T21:42:10.663Z,10.32
2023-06-16T21:45:15.036Z,11.43
2023-06-16T21:48:19.950Z,8.95
2023-06-16T21:51:24.369Z,9.77
2023-06-16T21:54:28.363Z,11.35
2023-06-16T21:57:32.586Z,6.78
2023-06-16T22:00:37.469Z,9.57
2023-06-16T22:03:41.458Z,8.27
2023-06-16T22:06:47.912Z,9.80
2023-06-16T22:09:52.820Z,8.65
2023-06-16T22:12:56.625Z,10.73
2023-06-16T22:16:01.431Z,7.43
2023-06-16T22:19:05.519Z,10.48
2023-06-16T22:22:11.082Z,7.93
2023-06-16T22:25:15.319Z,9.13
2023-06-16T22:28:19.328Z,9.52
2023-06-16T22:31:23.274Z,8.88
2023-06-16T22:34:27.876Z,7.30
2023-06-16T22:37:31.891Z,8.20
2023-06-16T22:40:35.849Z,8.95
2023-06-16T22:43:39.846Z,8.48
2023-06-16T22:46:45.065Z,8.30
2023-06-16T22:49:49.287Z,8.85
2023-06-16T22:52:53.191Z,7.55
2023-06-16T22:55:57.031Z,7.07
2023-06-16T22:59:00.913Z,7.20
2023-06-16T23:02:05.241Z,10.10
2023-06-16T23:05:09.804Z,8.30
2023-06-16T23:08:13.985Z,8.32
2023-06-16T23:11:17.675Z,8.07
2023-06-16T23:14:21.717Z,13.68
2023-06-16T23:17:26.151Z,9.73
2023-06-16T23:20:34.886Z,8.15
2023-06-16T23:23:38.664Z,7.10
2023-06-16T23:26:46.872Z,8.60
2023-06-16T23:29:53.065Z,8.75
2023-06-16T23:32:57.141Z,8.77
2023-06-16T23:36:00.886Z,10.77
2023-06-16T23:39:05.471Z,11.02
2023-06-16T23:42:09.808Z,10.90
2023-06-16T23:45:16.679Z,11.70
2023-06-16T23:48:20.756Z,8.77
2023-06-16T23:51:24.554Z,9.32
2023-06-16T23:54:28.927Z,11.05
2023-06-16T23:57:36.773Z,11.90
